createdAt,value
2022-09-24T00:01:29.782Z,98904.69
2022-09-24T00:04:02.919Z,98900.41
2022-09-24T00:06:36.664Z,98903.91
2022-09-24T00:09:04.070Z,98906.53
2022-09-24T00:11:31.669Z,98901.44
2022-09-24T00:13:59.694Z,98899.12
2022-09-24T00:16:29.109Z,98904.50
2022-09-24T00:18:56.172Z,98907.12
2022-09-24T00:21:28.654Z,98900.34
2022-09-24T00:23:58.518Z,98902.84
2022-09-24T00:26:44.734Z,98908.78
2022-09-24T00:29:14.414Z,98907.12
2022-09-24T00:31:41.860Z,98907.31
2022-09-24T00:34:09.032Z,98906.59
2022-09-24T00:36:37.127Z,98907.50
2022-09-24T00:39:05.042Z,98905.09
2022-09-24T00:41:34.442Z,98902.72
2022-09-24T00:44:02.197Z,98900.31
2022-09-24T00:46:34.148Z,98900.41
2022-09-24T00:49:04.796Z,98896.22
2022-09-24T00:51:32.997Z,98890.94
2022-09-24T00:54:04.524Z,98893.63
2022-09-24T00:56:36.540Z,98886.81
2022-09-24T00:59:05.124Z,98892.81
2022-09-24T01:01:32.826Z,98882.63
2022-09-24T01:04:00.909Z,98880.84
2022-09-24T01:06:28.081Z,98880.03
2022-09-24T01:08:56.908Z,98882.72
2022-09-24T01:11:49.413Z,98885.31
2022-09-24T01:14:32.956Z,98881.06
2022-09-24T01:17:31.050Z,98876.59
2022-09-24T01:20:22.929Z,98878.66
2022-09-24T01:23:11.642Z,98869.19
2022-09-24T01:25:54.650Z,98866.59
2022-09-24T01:28:37.641Z,98867.66
2022-09-24T01:31:16.840Z,98866.78
2022-09-24T01:33:46.559Z,98865.06
2022-09-24T01:36:15.899Z,98860.88
2022-09-24T01:38:44.782Z,98856.59
2022-09-24T01:41:13.675Z,98852.56
2022-09-24T01:43:41.013Z,98850.87
2022-09-24T01:46:08.469Z,98849.22
2022-09-24T01:48:39.499Z,98855.97
2022-09-24T01:51:55.866Z,98850.16
2022-09-24T01:54:26.655Z,98852.00
2022-09-24T01:57:02.070Z,98843.31
2022-09-24T01:59:33.129Z,98850.34
2022-09-24T02:02:09.100Z,98847.88
2022-09-24T02:04:42.476Z,98852.19
2022-09-24T02:07:23.202Z,98848.88
2022-09-24T02:09:50.631Z,98853.41
2022-09-24T02:12:24.015Z,98851.75
2022-09-24T02:14:58.050Z,98853.69
2022-09-24T02:17:27.891Z,98847.69
2022-09-24T02:19:57.098Z,98847.59
2022-09-24T02:22:24.372Z,98850.19
2022-09-24T02:24:54.475Z,98855.09
2022-09-24T02:27:22.023Z,98854.44
2022-09-24T02:29:51.713Z,98849.91
2022-09-24T02:32:19.260Z,98854.06
2022-09-24T02:34:51.922Z,98854.88
2022-09-24T02:37:20.433Z,98856.00
2022-09-24T02:39:48.282Z,98848.50
2022-09-24T02:42:15.829Z,98846.97
2022-09-24T02:44:42.856Z,98846.88
2022-09-24T02:47:10.162Z,98851.97
2022-09-24T02:49:37.131Z,98845.81
2022-09-24T02:52:04.642Z,98844.91
2022-09-24T02:54:31.930Z,98849.91
2022-09-24T02:56:59.042Z,98851.47
2022-09-24T02:59:26.026Z,98853.06
2022-09-24T03:01:53.469Z,98854.50
2022-09-24T03:04:20.568Z,98855.97
2022-09-24T03:06:47.602Z,98850.59
2022-09-24T03:09:15.029Z,98842.53
2022-09-24T03:11:42.059Z,98841.59
2022-09-24T03:14:09.196Z,98837.34
2022-09-24T03:16:36.644Z,98831.41
2022-09-24T03:19:03.734Z,98828.53
2022-09-24T03:21:30.777Z,98841.69
2022-09-24T03:23:58.104Z,98822.16
2022-09-24T03:26:25.273Z,98831.22
2022-09-24T03:28:52.430Z,98823.44
2022-09-24T03:31:19.744Z,98816.56
2022-09-24T03:33:49.068Z,98815.34
2022-09-24T03:36:24.487Z,98817.00
2022-09-24T03:38:55.394Z,98814.41
2022-09-24T03:41:23.486Z,98812.75
2022-09-24T03:43:50.577Z,98812.16
2022-09-24T03:46:18.870Z,98809.78
2022-09-24T03:48:47.344Z,98805.97
2022-09-24T03:51:18.562Z,98802.97
2022-09-24T03:53:47.000Z,98802.34
2022-09-24T03:56:14.264Z,98812.09
2022-09-24T03:58:41.918Z,98803.38
2022-09-24T04:01:12.110Z,98796.09
2022-09-24T04:03:40.513Z,98799.84
2022-09-24T04:06:07.864Z,98800.66
2022-09-24T04:08:34.990Z,98801.03
2022-09-24T04:11:02.349Z,98798.22
2022-09-24T04:13:29.423Z,98802.34
2022-09-24T04:15:56.669Z,98807.53
2022-09-24T04:18:23.953Z,98805.06
2022-09-24T04:20:50.922Z,98805.06
2022-09-24T04:23:17.934Z,98812.75
2022-09-24T04:25:45.194Z,98808.59
2022-09-24T04:28:12.372Z,98805.47
2022-09-24T04:30:40.341Z,98800.28
2022-09-24T04:33:07.824Z,98814.72
2022-09-24T04:35:38.404Z,98805.81
2022-09-24T04:38:05.667Z,98805.25
2022-09-24T04:40:33.024Z,98800.50
2022-09-24T04:43:00.101Z,98804.37
2022-09-24T04:45:27.175Z,98804.97
2022-09-24T04:47:57.816Z,98812.78
2022-09-24T04:50:27.407Z,98808.72
2022-09-24T04:52:55.940Z,98816.81
2022-09-24T04:55:24.080Z,98818.59
2022-09-24T04:57:51.593Z,98818.19
2022-09-24T05:00:20.906Z,98810.47
2022-09-24T05:02:48.639Z,98805.47
2022-09-24T05:05:15.718Z,98805.03
2022-09-24T05:07:44.562Z,98807.31
2022-09-24T05:10:11.801Z,98794.41
2022-09-24T05:12:40.784Z,98790.09
2022-09-24T05:15:08.486Z,98799.63
2022-09-24T05:17:39.401Z,98798.19
2022-09-24T05:20:07.763Z,98801.91
2022-09-24T05:22:36.612Z,98800.06
2022-09-24T05:25:03.799Z,98793.47
2022-09-24T05:27:30.907Z,98797.88
2022-09-24T05:29:58.243Z,98794.59
2022-09-24T05:32:25.619Z,98794.25
2022-09-24T05:34:53.476Z,98798.97
2022-09-24T05:37:20.840Z,98800.16
2022-09-24T05:39:47.818Z,98794.34
2022-09-24T05:42:15.137Z,98792.94
2022-09-24T05:44:48.640Z,98797.75
2022-09-24T05:47:18.988Z,98795.00
2022-09-24T05:49:46.261Z,98798.34
2022-09-24T05:52:13.290Z,98800.91
2022-09-24T05:54:40.299Z,98808.72
2022-09-24T05:57:07.581Z,98809.78
2022-09-24T05:59:34.544Z,98814.00
2022-09-24T06:02:01.577Z,98811.53
2022-09-24T06:04:28.908Z,98814.69
2022-09-24T06:06:56.334Z,98812.75
2022-09-24T06:09:23.310Z,98816.75
2022-09-24T06:11:53.092Z,98808.28
2022-09-24T06:14:20.427Z,98813.84
2022-09-24T06:16:47.404Z,98811.03
2022-09-24T06:19:14.698Z,98817.28
2022-09-24T06:21:41.693Z,98819.37
2022-09-24T06:24:08.699Z,98820.94
2022-09-24T06:26:36.846Z,98822.59
2022-09-24T06:29:05.190Z,98824.78
2022-09-24T06:31:32.974Z,98829.34
2022-09-24T06:34:00.557Z,98833.31
2022-09-24T06:36:27.560Z,98830.78
2022-09-24T06:38:54.608Z,98832.66
2022-09-24T06:41:22.477Z,98831.34
2022-09-24T06:43:49.445Z,98824.94
2022-09-24T06:46:16.725Z,98824.66
2022-09-24T06:48:44.089Z,98825.72
2022-09-24T06:51:11.077Z,98824.94
2022-09-24T06:53:38.468Z,98834.34
2022-09-24T06:56:06.094Z,98825.50
2022-09-24T06:58:34.001Z,98826.91
2022-09-24T07:01:02.792Z,98836.16
2022-09-24T07:03:32.081Z,98828.88
2022-09-24T07:06:04.368Z,98842.13
2022-09-24T07:08:32.542Z,98845.50
2022-09-24T07:11:00.697Z,98845.62
2022-09-24T07:13:27.951Z,98845.38
2022-09-24T07:15:55.554Z,98847.53
2022-09-24T07:18:23.098Z,98846.88
2022-09-24T07:20:54.172Z,98853.47
2022-09-24T07:23:21.985Z,98862.31
2022-09-24T07:25:49.765Z,98865.09
2022-09-24T07:28:17.109Z,98860.44
2022-09-24T07:30:44.718Z,98853.56
2022-09-24T07:33:11.769Z,98859.88
2022-09-24T07:35:39.775Z,98864.31
2022-09-24T07:38:11.954Z,98863.59
2022-09-24T07:40:39.572Z,98869.34
2022-09-24T07:43:12.340Z,98866.53
2022-09-24T07:45:42.704Z,98868.59
2022-09-24T07:48:11.179Z,98873.84
2022-09-24T07:50:40.001Z,98873.72
2022-09-24T07:53:07.052Z,98872.59
2022-09-24T07:55:39.474Z,98873.72
2022-09-24T07:58:08.647Z,98872.81
2022-09-24T08:00:35.987Z,98872.75
2022-09-24T08:03:03.899Z,98875.63
2022-09-24T08:05:34.251Z,98867.59
2022-09-24T08:08:01.499Z,98870.38
2022-09-24T08:10:28.925Z,98867.19
2022-09-24T08:12:58.959Z,98869.88
2022-09-24T08:15:26.015Z,98869.72
2022-09-24T08:17:53.462Z,98861.22
2022-09-24T08:20:21.530Z,98859.00
2022-09-24T08:22:48.643Z,98864.13
2022-09-24T08:25:15.996Z,98863.16
2022-09-24T08:27:42.976Z,98859.44
2022-09-24T08:30:10.639Z,98853.00
2022-09-24T08:32:37.948Z,98844.66
2022-09-24T08:35:08.233Z,98839.84
2022-09-24T08:37:35.345Z,98842.63
2022-09-24T08:40:03.856Z,98847.06
2022-09-24T08:42:39.206Z,98843.56
2022-09-24T08:45:25.715Z,98845.38
2022-09-24T08:48:02.078Z,98830.03
2022-09-24T08:50:30.835Z,98835.00
2022-09-24T08:53:14.911Z,98838.62
2022-09-24T08:55:50.199Z,98839.81
2022-09-24T08:58:29.045Z,98843.06
2022-09-24T09:01:07.533Z,98853.81
2022-09-24T09:04:06.437Z,98854.22
2022-09-24T09:06:48.971Z,98844.88
2022-09-24T09:09:19.575Z,98828.47
2022-09-24T09:11:50.447Z,98833.88
2022-09-24T09:14:20.625Z,98825.66
2022-09-24T09:16:59.188Z,98821.94
2022-09-24T09:19:30.100Z,98826.72
2022-09-24T09:22:01.039Z,98826.81
2022-09-24T09:24:42.180Z,98819.63
2022-09-24T09:27:14.838Z,98820.19
2022-09-24T09:29:51.921Z,98823.31
2022-09-24T09:32:57.346Z,98824.09
2022-09-24T09:35:33.256Z,98811.75
2022-09-24T09:38:24.517Z,98811.06
2022-09-24T09:41:06.861Z,98811.37
2022-09-24T09:43:35.337Z,98807.47
2022-09-24T09:46:20.581Z,98806.03
2022-09-24T09:48:54.298Z,98808.50
2022-09-24T09:51:26.201Z,98811.22
2022-09-24T09:53:58.884Z,98802.59
2022-09-24T09:56:38.056Z,98815.75
2022-09-24T09:59:23.522Z,98812.37
2022-09-24T10:01:56.417Z,98808.16
2022-09-24T10:04:35.806Z,98807.81
2022-09-24T10:07:14.137Z,98801.97
2022-09-24T10:09:43.234Z,98804.31
2022-09-24T10:12:24.278Z,98799.06
2022-09-24T10:15:12.348Z,98800.81
2022-09-24T10:17:39.740Z,98788.41
2022-09-24T10:20:17.254Z,98785.81
2022-09-24T10:22:52.044Z,98783.34
2022-09-24T10:25:24.570Z,98788.66
2022-09-24T10:27:53.727Z,98774.34
2022-09-24T10:30:36.150Z,98785.38
2022-09-24T10:33:04.688Z,98780.06
2022-09-24T10:35:35.856Z,98776.75
2022-09-24T10:38:15.670Z,98775.59
2022-09-24T10:40:42.963Z,98767.91
2022-09-24T10:43:18.411Z,98766.84
2022-09-24T10:46:01.729Z,98782.47
2022-09-24T10:48:39.650Z,98776.25
2022-09-24T10:51:29.829Z,98779.44
2022-09-24T10:54:05.088Z,98765.53
2022-09-24T10:56:46.130Z,98772.97
2022-09-24T10:59:20.308Z,98773.06
2022-09-24T11:02:12.203Z,98777.78
2022-09-24T11:05:00.506Z,98777.25
2022-09-24T11:07:31.257Z,98768.66
2022-09-24T11:10:23.171Z,98762.66
2022-09-24T11:13:16.719Z,98757.28
2022-09-24T11:15:46.948Z,98766.47
2022-09-24T11:18:52.039Z,98760.78
2022-09-24T11:21:43.951Z,98758.66
2022-09-24T11:24:26.129Z,98746.38
2022-09-24T11:27:20.720Z,98744.88
2022-09-24T11:29:50.669Z,98739.81
2022-09-24T11:32:31.857Z,98742.41
2022-09-24T11:35:17.539Z,98742.81
2022-09-24T11:37:53.466Z,98744.91
2022-09-24T11:40:40.268Z,98736.97
2022-09-24T11:43:18.469Z,98726.63
2022-09-24T11:46:04.120Z,98730.91
2022-09-24T11:48:37.530Z,98727.94
2022-09-24T11:51:41.893Z,98731.84
2022-09-24T11:54:24.206Z,98732.03
2022-09-24T11:57:00.960Z,98734.50
2022-09-24T11:59:37.185Z,98726.00
2022-09-24T12:02:25.118Z,98725.03
2022-09-24T12:05:34.943Z,98715.94
2022-09-24T12:08:14.191Z,98712.91
2022-09-24T12:10:44.207Z,98718.06
2022-09-24T12:13:20.370Z,98716.72
2022-09-24T12:16:14.256Z,98727.69
2022-09-24T12:18:52.632Z,98716.28
2022-09-24T12:21:28.161Z,98707.44
2022-09-24T12:24:03.222Z,98702.31
2022-09-24T12:26:31.398Z,98711.63
2022-09-24T12:29:21.974Z,98710.12
2022-09-24T12:32:22.752Z,98708.00
2022-09-24T12:35:00.663Z,98707.19
2022-09-24T12:37:34.946Z,98700.72
2022-09-24T12:40:37.124Z,98695.78
2022-09-24T12:43:12.179Z,98694.84
2022-09-24T12:45:39.239Z,98693.19
2022-09-24T12:48:12.125Z,98690.56
2022-09-24T12:50:39.665Z,98688.78
2022-09-24T12:53:24.724Z,98691.81
2022-09-24T12:55:52.716Z,98697.63
2022-09-24T12:58:30.763Z,98681.56
2022-09-24T13:01:08.355Z,98686.28
2022-09-24T13:03:46.007Z,98678.66
2022-09-24T13:06:23.173Z,98687.03
2022-09-24T13:08:50.781Z,98675.28
2022-09-24T13:11:33.493Z,98682.81
2022-09-24T13:14:21.886Z,98682.25
2022-09-24T13:16:51.160Z,98682.87
2022-09-24T13:19:42.212Z,98686.38
2022-09-24T13:22:26.665Z,98682.25
2022-09-24T13:25:08.145Z,98670.75
2022-09-24T13:27:41.417Z,98661.91
2022-09-24T13:30:08.890Z,98662.97
2022-09-24T13:32:58.776Z,98668.13
2022-09-24T13:35:31.318Z,98666.06
2022-09-24T13:38:36.506Z,98661.38
2022-09-24T13:41:23.484Z,98665.56
2022-09-24T13:44:15.918Z,98662.78
2022-09-24T13:46:46.535Z,98661.97
2022-09-24T13:49:19.180Z,98665.34
2022-09-24T13:52:09.241Z,98663.16
2022-09-24T13:54:42.752Z,98657.34
2022-09-24T13:57:14.054Z,98654.41
2022-09-24T13:59:41.063Z,98648.31
2022-09-24T14:02:25.493Z,98646.59
2022-09-24T14:04:58.179Z,98655.50
2022-09-24T14:07:27.111Z,98656.78
2022-09-24T14:10:13.219Z,98655.91
2022-09-24T14:12:40.588Z,98655.72
2022-09-24T14:15:26.233Z,98659.19
2022-09-24T14:17:59.580Z,98651.06
2022-09-24T14:20:30.514Z,98644.28
2022-09-24T14:22:57.521Z,98645.13
2022-09-24T14:25:29.554Z,98650.69
2022-09-24T14:27:58.983Z,98648.91
2022-09-24T14:30:27.731Z,98647.78
2022-09-24T14:33:00.320Z,98646.50
2022-09-24T14:35:32.709Z,98643.28
2022-09-24T14:38:20.326Z,98643.47
2022-09-24T14:40:51.413Z,98634.69
2022-09-24T14:43:33.562Z,98640.16
2022-09-24T14:46:25.824Z,98639.00
2022-09-24T14:48:53.265Z,98637.44
2022-09-24T14:51:26.802Z,98637.94
2022-09-24T14:54:19.330Z,98644.72
2022-09-24T14:56:46.762Z,98645.37
2022-09-24T14:59:15.514Z,98643.97
2022-09-24T15:01:43.206Z,98635.97
2022-09-24T15:04:25.311Z,98638.91
2022-09-24T15:06:55.146Z,98637.88
2022-09-24T15:09:26.289Z,98644.84
2022-09-24T15:11:55.332Z,98630.06
2022-09-24T15:14:27.711Z,98639.13
2022-09-24T15:16:55.113Z,98644.16
2022-09-24T15:19:25.313Z,98648.91
2022-09-24T15:21:55.519Z,98649.38
2022-09-24T15:24:23.532Z,98640.03
2022-09-24T15:27:05.188Z,98640.84
2022-09-24T15:29:33.141Z,98638.91
2022-09-24T15:32:00.296Z,98640.34
2022-09-24T15:34:28.463Z,98640.00
2022-09-24T15:36:59.332Z,98632.75
2022-09-24T15:39:27.435Z,98630.66
2022-09-24T15:41:54.791Z,98623.09
2022-09-24T15:44:27.192Z,98632.00
2022-09-24T15:46:57.039Z,98628.19
2022-09-24T15:49:24.393Z,98621.09
2022-09-24T15:51:55.073Z,98623.91
2022-09-24T15:54:22.306Z,98618.97
2022-09-24T15:56:52.664Z,98618.06
2022-09-24T15:59:21.345Z,98619.25
2022-09-24T16:01:49.879Z,98614.78
2022-09-24T16:04:17.364Z,98613.97
2022-09-24T16:06:44.399Z,98611.56
2022-09-24T16:09:11.448Z,98614.56
2022-09-24T16:11:38.917Z,98625.09
2022-09-24T16:14:06.520Z,98622.66
2022-09-24T16:16:33.618Z,98632.38
2022-09-24T16:19:00.943Z,98625.66
2022-09-24T16:21:27.958Z,98615.94
2022-09-24T16:23:56.026Z,98613.09
2022-09-24T16:26:23.643Z,98618.22
2022-09-24T16:28:51.638Z,98609.84
2022-09-24T16:31:19.577Z,98613.78
2022-09-24T16:33:47.191Z,98608.19
2022-09-24T16:36:14.282Z,98609.19
2022-09-24T16:38:41.638Z,98606.03
2022-09-24T16:41:12.053Z,98614.28
2022-09-24T16:43:39.065Z,98612.81
2022-09-24T16:46:08.523Z,98615.75
2022-09-24T16:48:36.448Z,98609.31
2022-09-24T16:51:04.528Z,98610.31
2022-09-24T16:53:31.944Z,98607.03
2022-09-24T16:56:17.783Z,98608.50
2022-09-24T16:58:46.133Z,98611.81
2022-09-24T17:01:15.881Z,98607.34
2022-09-24T17:03:43.202Z,98604.38
2022-09-24T17:06:18.736Z,98615.22
2022-09-24T17:09:04.832Z,98608.31
2022-09-24T17:11:31.925Z,98613.75
2022-09-24T17:14:00.232Z,98615.41
2022-09-24T17:16:27.411Z,98611.28
2022-09-24T17:18:54.599Z,98614.25
2022-09-24T17:21:23.066Z,98612.44
2022-09-24T17:23:51.114Z,98613.94
2022-09-24T17:26:20.212Z,98611.63
2022-09-24T17:28:49.036Z,98608.31
2022-09-24T17:31:17.537Z,98616.22
2022-09-24T17:33:45.246Z,98615.91
2022-09-24T17:36:14.187Z,98611.63
2022-09-24T17:38:41.811Z,98612.28
2022-09-24T17:41:10.895Z,98616.91
2022-09-24T17:43:39.319Z,98613.75
2022-09-24T17:46:10.163Z,98612.94
2022-09-24T17:48:46.259Z,98617.56
2022-09-24T17:51:25.127Z,98618.03
2022-09-24T17:53:54.694Z,98620.66
2022-09-24T17:56:42.147Z,98612.75
2022-09-24T17:59:11.557Z,98613.41
2022-09-24T18:01:40.575Z,98609.94
2022-09-24T18:04:19.904Z,98622.78
2022-09-24T18:06:48.315Z,98617.16
2022-09-24T18:09:17.183Z,98610.75
2022-09-24T18:11:52.252Z,98625.75
2022-09-24T18:14:21.377Z,98626.03
2022-09-24T18:16:51.707Z,98626.41
2022-09-24T18:19:19.115Z,98628.53
2022-09-24T18:21:49.206Z,98624.09
2022-09-24T18:24:16.681Z,98626.06
2022-09-24T18:26:43.935Z,98626.75
2022-09-24T18:29:13.903Z,98628.72
2022-09-24T18:31:41.603Z,98622.31
2022-09-24T18:34:09.948Z,98622.00
2022-09-24T18:36:39.305Z,98628.41
2022-09-24T18:39:08.551Z,98620.50
2022-09-24T18:41:36.415Z,98621.13
2022-09-24T18:44:04.551Z,98623.59
2022-09-24T18:46:32.771Z,98619.50
2022-09-24T18:49:00.525Z,98629.34
2022-09-24T18:51:31.650Z,98627.69
2022-09-24T18:53:59.395Z,98627.22
2022-09-24T18:56:27.188Z,98632.97
2022-09-24T18:58:59.118Z,98634.28
2022-09-24T19:01:27.096Z,98638.22
2022-09-24T19:03:55.456Z,98635.09
2022-09-24T19:06:22.675Z,98629.69
2022-09-24T19:08:49.753Z,98630.00
2022-09-24T19:11:17.492Z,98636.28
2022-09-24T19:13:49.202Z,98623.44
2022-09-24T19:16:18.068Z,98631.97
2022-09-24T19:18:45.227Z,98633.12
2022-09-24T19:21:14.156Z,98632.16
2022-09-24T19:23:49.570Z,98627.38
2022-09-24T19:26:28.532Z,98623.41
2022-09-24T19:28:56.200Z,98631.13
2022-09-24T19:31:32.254Z,98620.13
2022-09-24T19:34:03.125Z,98618.78
2022-09-24T19:36:30.985Z,98620.94
2022-09-24T19:38:58.021Z,98608.75
2022-09-24T19:41:26.523Z,98617.75
2022-09-24T19:44:08.335Z,98612.47
2022-09-24T19:46:37.162Z,98616.63
2022-09-24T19:49:04.245Z,98608.88
2022-09-24T19:51:32.901Z,98613.50
2022-09-24T19:54:02.380Z,98613.53
2022-09-24T19:56:31.825Z,98616.31
2022-09-24T19:59:00.889Z,98616.94
2022-09-24T20:01:30.723Z,98614.78
2022-09-24T20:04:00.310Z,98611.47
2022-09-24T20:06:29.042Z,98611.47
2022-09-24T20:08:57.187Z,98612.31
2022-09-24T20:11:25.725Z,98614.75
2022-09-24T20:13:55.419Z,98611.09
2022-09-24T20:16:26.302Z,98609.47
2022-09-24T20:18:57.621Z,98609.75
2022-09-24T20:21:27.692Z,98601.59
2022-09-24T20:23:56.815Z,98605.81
2022-09-24T20:26:43.355Z,98595.78
2022-09-24T20:29:12.245Z,98606.78
2022-09-24T20:31:52.892Z,98611.00
2022-09-24T20:34:25.793Z,98594.28
2022-09-24T20:36:52.766Z,98599.69
2022-09-24T20:39:20.677Z,98600.19
2022-09-24T20:41:49.319Z,98599.84
2022-09-24T20:44:16.629Z,98610.31
2022-09-24T20:46:43.884Z,98602.12
2022-09-24T20:49:25.743Z,98604.75
2022-09-24T20:51:57.119Z,98603.63
2022-09-24T20:54:25.649Z,98599.13
2022-09-24T20:56:52.994Z,98598.13
2022-09-24T20:59:20.208Z,98605.03
2022-09-24T21:01:48.117Z,98602.06
2022-09-24T21:04:20.039Z,98598.09
2022-09-24T21:06:48.084Z,98597.16
2022-09-24T21:09:16.907Z,98596.34
2022-09-24T21:11:44.053Z,98594.53
2022-09-24T21:14:12.395Z,98598.44
2022-09-24T21:16:40.224Z,98598.13
2022-09-24T21:19:07.922Z,98594.69
2022-09-24T21:21:38.949Z,98602.38
2022-09-24T21:24:11.628Z,98603.38
2022-09-24T21:26:39.337Z,98597.19
2022-09-24T21:29:20.809Z,98594.69
2022-09-24T21:31:48.647Z,98599.16
2022-09-24T21:34:19.429Z,98599.00
2022-09-24T21:36:46.545Z,98595.38
2022-09-24T21:39:16.685Z,98602.12
2022-09-24T21:41:45.133Z,98600.19
2022-09-24T21:44:14.361Z,98597.50
2022-09-24T21:46:43.742Z,98598.66
2022-09-24T21:49:11.451Z,98595.97
2022-09-24T21:51:39.461Z,98595.50
2022-09-24T21:54:08.737Z,98588.53
2022-09-24T21:56:36.398Z,98589.97
2022-09-24T21:59:26.951Z,98591.78
2022-09-24T22:01:55.404Z,98589.63
2022-09-24T22:04:22.863Z,98597.19
2022-09-24T22:06:51.001Z,98590.09
2022-09-24T22:09:18.593Z,98591.97
2022-09-24T22:11:46.335Z,98593.81
2022-09-24T22:14:13.897Z,98587.88
2022-09-24T22:16:41.058Z,98593.47
2022-09-24T22:19:09.399Z,98585.56
2022-09-24T22:21:36.735Z,98588.12
2022-09-24T22:24:04.990Z,98583.66
2022-09-24T22:26:32.687Z,98587.84
2022-09-24T22:28:59.714Z,98584.16
2022-09-24T22:31:27.019Z,98579.91
2022-09-24T22:34:13.009Z,98579.38
2022-09-24T22:36:40.579Z,98581.88
2022-09-24T22:39:08.000Z,98578.09
2022-09-24T22:41:37.845Z,98577.94
2022-09-24T22:44:04.899Z,98582.03
2022-09-24T22:46:33.269Z,98569.13
2022-09-24T22:49:00.378Z,98571.75
2022-09-24T22:51:27.528Z,98571.75
2022-09-24T22:53:56.237Z,98575.97
2022-09-24T22:56:25.020Z,98565.94
2022-09-24T22:58:57.016Z,98568.37
2022-09-24T23:01:35.778Z,98567.81
2022-09-24T23:04:03.214Z,98564.88
2022-09-24T23:06:32.837Z,98564.22
2022-09-24T23:09:00.410Z,98560.63
2022-09-24T23:11:29.670Z,98568.81
2022-09-24T23:14:02.651Z,98573.38
2022-09-24T23:16:32.012Z,98568.09
2022-09-24T23:19:01.291Z,98563.34
2022-09-24T23:21:30.464Z,98564.03
2022-09-24T23:23:59.919Z,98566.81
2022-09-24T23:26:27.856Z,98568.09
2022-09-24T23:28:56.000Z,98571.31
2022-09-24T23:31:32.072Z,98573.56
2022-09-24T23:34:01.276Z,98566.28
2022-09-24T23:36:31.139Z,98559.41
2022-09-24T23:38:59.072Z,98564.97
2022-09-24T23:41:26.777Z,98560.97
2022-09-24T23:43:53.768Z,98554.06
2022-09-24T23:46:20.932Z,98550.50
2022-09-24T23:48:48.313Z,98556.25
2022-09-24T23:51:15.290Z,98552.81
2022-09-24T23:53:42.288Z,98563.22
2022-09-24T23:56:09.662Z,98567.13
2022-09-24T23:58:36.840Z,98561.91
